sensor_id;sensor_type;location;lat;lon;timestamp;temperature;humidity
71082;SHT31;58740;50.672;18.690;2024-02-23T00:01:41;8.70;78.52
71082;SHT31;58740;50.672;18.690;2024-02-23T00:04:15;8.69;78.74
71082;SHT31;58740;50.672;18.690;2024-02-23T00:06:48;8.67;78.87
71082;SHT31;58740;50.672;18.690;2024-02-23T00:09:22;8.66;79.10
71082;SHT31;58740;50.672;18.690;2024-02-23T00:11:55;8.63;79.28
71082;SHT31;58740;50.672;18.690;2024-02-23T00:14:29;8.62;79.43
71082;SHT31;58740;50.672;18.690;2024-02-23T00:17:05;8.60;79.64
71082;SHT31;58740;50.672;18.690;2024-02-23T00:19:38;8.59;79.72
71082;SHT31;58740;50.672;18.690;2024-02-23T00:22:12;8.56;79.86
71082;SHT31;58740;50.672;18.690;2024-02-23T00:24:45;8.54;79.98
71082;SHT31;58740;50.672;18.690;2024-02-23T00:27:19;8.53;80.19
71082;SHT31;58740;50.672;18.690;2024-02-23T00:29:52;8.50;80.41
71082;SHT31;58740;50.672;18.690;2024-02-23T00:32:25;8.48;80.51
71082;SHT31;58740;50.672;18.690;2024-02-23T00:34:58;8.47;80.66
71082;SHT31;58740;50.672;18.690;2024-02-23T00:37:32;8.45;80.61
71082;SHT31;58740;50.672;18.690;2024-02-23T00:40:06;8.44;80.82
71082;SHT31;58740;50.672;18.690;2024-02-23T00:42:41;8.42;80.93
71082;SHT31;58740;50.672;18.690;2024-02-23T00:45:14;8.40;81.09
71082;SHT31;58740;50.672;18.690;2024-02-23T00:47:48;8.38;81.04
71082;SHT31;58740;50.672;18.690;2024-02-23T00:50:21;8.37;81.13
71082;SHT31;58740;50.672;18.690;2024-02-23T00:52:55;8.36;81.23
71082;SHT31;58740;50.672;18.690;2024-02-23T00:55:28;8.35;81.37
71082;SHT31;58740;50.672;18.690;2024-02-23T00:58:02;8.33;81.53
71082;SHT31;58740;50.672;18.690;2024-02-23T01:00:36;8.32;81.42
71082;SHT31;58740;50.672;18.690;2024-02-23T01:03:10;8.31;81.43
71082;SHT31;58740;50.672;18.690;2024-02-23T01:05:44;8.30;81.54
71082;SHT31;58740;50.672;18.690;2024-02-23T01:08:17;8.30;81.74
71082;SHT31;58740;50.672;18.690;2024-02-23T01:10:51;8.29;81.91
71082;SHT31;58740;50.672;18.690;2024-02-23T01:13:24;8.28;81.99
71082;SHT31;58740;50.672;18.690;2024-02-23T01:15:57;8.27;82.05
71082;SHT31;58740;50.672;18.690;2024-02-23T01:18:30;8.27;82.13
71082;SHT31;58740;50.672;18.690;2024-02-23T01:21:04;8.25;82.24
71082;SHT31;58740;50.672;18.690;2024-02-23T01:23:37;8.25;82.25
71082;SHT31;58740;50.672;18.690;2024-02-23T01:26:11;8.24;82.39
71082;SHT31;58740;50.672;18.690;2024-02-23T01:28:44;8.22;82.44
71082;SHT31;58740;50.672;18.690;2024-02-23T01:31:17;8.20;82.43
71082;SHT31;58740;50.672;18.690;2024-02-23T01:33:50;8.19;82.61
71082;SHT31;58740;50.672;18.690;2024-02-23T01:36:24;8.18;82.70
71082;SHT31;58740;50.672;18.690;2024-02-23T01:38:57;8.16;82.78
71082;SHT31;58740;50.672;18.690;2024-02-23T01:41:30;8.14;82.82
71082;SHT31;58740;50.672;18.690;2024-02-23T01:44:03;8.13;82.87
71082;SHT31;58740;50.672;18.690;2024-02-23T01:46:37;8.12;82.98
71082;SHT31;58740;50.672;18.690;2024-02-23T01:49:10;8.10;82.98
71082;SHT31;58740;50.672;18.690;2024-02-23T01:51:43;8.09;83.05
71082;SHT31;58740;50.672;18.690;2024-02-23T01:54:17;8.08;83.12
71082;SHT31;58740;50.672;18.690;2024-02-23T01:56:50;8.07;83.23
71082;SHT31;58740;50.672;18.690;2024-02-23T01:59:25;8.06;83.18
71082;SHT31;58740;50.672;18.690;2024-02-23T02:01:59;8.06;83.33
71082;SHT31;58740;50.672;18.690;2024-02-23T02:04:32;8.04;83.33
71082;SHT31;58740;50.672;18.690;2024-02-23T02:07:06;8.04;83.37
71082;SHT31;58740;50.672;18.690;2024-02-23T02:09:39;8.03;83.49
71082;SHT31;58740;50.672;18.690;2024-02-23T02:12:12;8.02;83.46
71082;SHT31;58740;50.672;18.690;2024-02-23T02:14:55;8.00;83.47
71082;SHT31;58740;50.672;18.690;2024-02-23T02:17:30;8.02;83.47
71082;SHT31;58740;50.672;18.690;2024-02-23T02:20:07;8.01;83.60
71082;SHT31;58740;50.672;18.690;2024-02-23T02:22:44;8.00;83.64
71082;SHT31;58740;50.672;18.690;2024-02-23T02:25:17;7.99;83.77
71082;SHT31;58740;50.672;18.690;2024-02-23T02:27:50;7.98;83.64
71082;SHT31;58740;50.672;18.690;2024-02-23T02:30:24;7.97;83.69
71082;SHT31;58740;50.672;18.690;2024-02-23T02:32:57;7.98;83.75
71082;SHT31;58740;50.672;18.690;2024-02-23T02:35:30;7.97;83.81
71082;SHT31;58740;50.672;18.690;2024-02-23T02:38:04;7.96;83.81
71082;SHT31;58740;50.672;18.690;2024-02-23T02:40:37;7.95;83.86
71082;SHT31;58740;50.672;18.690;2024-02-23T02:43:10;7.94;83.96
71082;SHT31;58740;50.672;18.690;2024-02-23T02:45:43;7.94;84.02
71082;SHT31;58740;50.672;18.690;2024-02-23T02:48:16;7.93;84.08
71082;SHT31;58740;50.672;18.690;2024-02-23T02:50:50;7.93;83.98
71082;SHT31;58740;50.672;18.690;2024-02-23T02:53:24;7.92;84.00
71082;SHT31;58740;50.672;18.690;2024-02-23T02:55:57;7.91;83.99
71082;SHT31;58740;50.672;18.690;2024-02-23T02:58:30;7.91;84.06
71082;SHT31;58740;50.672;18.690;2024-02-23T03:01:03;7.91;84.01
71082;SHT31;58740;50.672;18.690;2024-02-23T03:03:37;7.91;83.94
71082;SHT31;58740;50.672;18.690;2024-02-23T03:06:11;7.92;84.04
71082;SHT31;58740;50.672;18.690;2024-02-23T03:08:44;7.91;83.97
71082;SHT31;58740;50.672;18.690;2024-02-23T03:11:17;7.90;83.93
71082;SHT31;58740;50.672;18.690;2024-02-23T03:13:50;7.91;83.96
71082;SHT31;58740;50.672;18.690;2024-02-23T03:16:23;7.90;83.96
71082;SHT31;58740;50.672;18.690;2024-02-23T03:18:59;7.90;83.99
71082;SHT31;58740;50.672;18.690;2024-02-23T03:21:32;7.90;83.98
71082;SHT31;58740;50.672;18.690;2024-02-23T03:24:08;7.91;84.06
71082;SHT31;58740;50.672;18.690;2024-02-23T03:26:41;7.89;83.97
71082;SHT31;58740;50.672;18.690;2024-02-23T03:29:14;7.90;83.92
71082;SHT31;58740;50.672;18.690;2024-02-23T03:31:47;7.91;83.90
71082;SHT31;58740;50.672;18.690;2024-02-23T03:34:21;7.91;83.97
71082;SHT31;58740;50.672;18.690;2024-02-23T03:36:54;7.91;84.03
71082;SHT31;58740;50.672;18.690;2024-02-23T03:39:30;7.89;84.11
71082;SHT31;58740;50.672;18.690;2024-02-23T03:42:05;7.90;84.12
71082;SHT31;58740;50.672;18.690;2024-02-23T03:44:38;7.88;84.14
71082;SHT31;58740;50.672;18.690;2024-02-23T03:47:12;7.87;84.20
71082;SHT31;58740;50.672;18.690;2024-02-23T03:49:46;7.86;84.22
71082;SHT31;58740;50.672;18.690;2024-02-23T03:52:19;7.85;84.21
71082;SHT31;58740;50.672;18.690;2024-02-23T03:54:52;7.85;84.28
71082;SHT31;58740;50.672;18.690;2024-02-23T03:57:25;7.85;84.31
71082;SHT31;58740;50.672;18.690;2024-02-23T03:59:58;7.84;84.33
71082;SHT31;58740;50.672;18.690;2024-02-23T04:02:32;7.83;84.33
71082;SHT31;58740;50.672;18.690;2024-02-23T04:05:06;7.84;84.31
71082;SHT31;58740;50.672;18.690;2024-02-23T04:07:41;7.84;84.30
71082;SHT31;58740;50.672;18.690;2024-02-23T04:10:14;7.84;84.29
71082;SHT31;58740;50.672;18.690;2024-02-23T04:12:49;7.84;84.26
71082;SHT31;58740;50.672;18.690;2024-02-23T04:15:22;7.85;84.21
71082;SHT31;58740;50.672;18.690;2024-02-23T04:17:55;7.85;84.27
71082;SHT31;58740;50.672;18.690;2024-02-23T04:20:28;7.85;84.33
71082;SHT31;58740;50.672;18.690;2024-02-23T04:23:02;7.85;84.36
71082;SHT31;58740;50.672;18.690;2024-02-23T04:25:35;7.85;84.44
71082;SHT31;58740;50.672;18.690;2024-02-23T04:28:08;7.84;84.43
71082;SHT31;58740;50.672;18.690;2024-02-23T04:30:41;7.85;84.50
71082;SHT31;58740;50.672;18.690;2024-02-23T04:33:14;7.84;84.56
71082;SHT31;58740;50.672;18.690;2024-02-23T04:35:48;7.84;84.62
71082;SHT31;58740;50.672;18.690;2024-02-23T04:38:21;7.83;84.56
71082;SHT31;58740;50.672;18.690;2024-02-23T04:40:55;7.84;84.59
71082;SHT31;58740;50.672;18.690;2024-02-23T04:43:28;7.84;84.56
71082;SHT31;58740;50.672;18.690;2024-02-23T04:46:01;7.84;84.64
71082;SHT31;58740;50.672;18.690;2024-02-23T04:48:34;7.84;84.72
71082;SHT31;58740;50.672;18.690;2024-02-23T04:51:08;7.84;84.73
71082;SHT31;58740;50.672;18.690;2024-02-23T04:53:41;7.84;84.68
71082;SHT31;58740;50.672;18.690;2024-02-23T04:56:15;7.84;84.69
71082;SHT31;58740;50.672;18.690;2024-02-23T04:58:52;7.84;84.61
71082;SHT31;58740;50.672;18.690;2024-02-23T05:01:26;7.85;84.66
71082;SHT31;58740;50.672;18.690;2024-02-23T05:04:04;7.86;84.70
71082;SHT31;58740;50.672;18.690;2024-02-23T05:06:38;7.85;84.67
71082;SHT31;58740;50.672;18.690;2024-02-23T05:09:12;7.85;84.67
71082;SHT31;58740;50.672;18.690;2024-02-23T05:11:46;7.86;84.80
71082;SHT31;58740;50.672;18.690;2024-02-23T05:14:19;7.85;84.81
71082;SHT31;58740;50.672;18.690;2024-02-23T05:16:53;7.86;84.91
71082;SHT31;58740;50.672;18.690;2024-02-23T05:19:27;7.85;84.81
71082;SHT31;58740;50.672;18.690;2024-02-23T05:22:00;7.85;84.86
71082;SHT31;58740;50.672;18.690;2024-02-23T05:24:33;7.85;84.85
71082;SHT31;58740;50.672;18.690;2024-02-23T05:27:06;7.86;84.92
71082;SHT31;58740;50.672;18.690;2024-02-23T05:29:40;7.85;85.00
71082;SHT31;58740;50.672;18.690;2024-02-23T05:32:13;7.85;85.00
71082;SHT31;58740;50.672;18.690;2024-02-23T05:34:47;7.85;85.04
71082;SHT31;58740;50.672;18.690;2024-02-23T05:37:23;7.85;85.08
71082;SHT31;58740;50.672;18.690;2024-02-23T05:39:57;7.84;85.10
71082;SHT31;58740;50.672;18.690;2024-02-23T05:42:33;7.84;85.20
71082;SHT31;58740;50.672;18.690;2024-02-23T05:45:08;7.83;85.30
71082;SHT31;58740;50.672;18.690;2024-02-23T05:47:42;7.84;85.31
71082;SHT31;58740;50.672;18.690;2024-02-23T05:50:17;7.83;85.23
71082;SHT31;58740;50.672;18.690;2024-02-23T05:52:50;7.84;85.28
71082;SHT31;58740;50.672;18.690;2024-02-23T05:55:23;7.84;85.29
71082;SHT31;58740;50.672;18.690;2024-02-23T05:57:56;7.84;85.33
71082;SHT31;58740;50.672;18.690;2024-02-23T06:00:29;7.85;85.27
71082;SHT31;58740;50.672;18.690;2024-02-23T06:03:03;7.86;85.35
71082;SHT31;58740;50.672;18.690;2024-02-23T06:05:36;7.85;85.35
71082;SHT31;58740;50.672;18.690;2024-02-23T06:08:10;7.87;85.40
71082;SHT31;58740;50.672;18.690;2024-02-23T06:10:43;7.87;85.43
71082;SHT31;58740;50.672;18.690;2024-02-23T06:13:17;7.88;85.56
71082;SHT31;58740;50.672;18.690;2024-02-23T06:15:50;7.88;85.46
71082;SHT31;58740;50.672;18.690;2024-02-23T06:18:23;7.88;85.47
71082;SHT31;58740;50.672;18.690;2024-02-23T06:20:56;7.90;85.45
71082;SHT31;58740;50.672;18.690;2024-02-23T06:23:29;7.89;85.50
71082;SHT31;58740;50.672;18.690;2024-02-23T06:26:03;7.89;85.46
71082;SHT31;58740;50.672;18.690;2024-02-23T06:28:37;7.90;85.45
71082;SHT31;58740;50.672;18.690;2024-02-23T06:31:11;7.91;85.51
71082;SHT31;58740;50.672;18.690;2024-02-23T06:33:45;7.92;85.60
71082;SHT31;58740;50.672;18.690;2024-02-23T06:36:20;7.92;85.71
71082;SHT31;58740;50.672;18.690;2024-02-23T06:38:53;7.91;85.73
71082;SHT31;58740;50.672;18.690;2024-02-23T06:41:27;7.92;85.80
71082;SHT31;58740;50.672;18.690;2024-02-23T06:44:00;7.92;85.78
71082;SHT31;58740;50.672;18.690;2024-02-23T06:46:34;7.91;85.74
71082;SHT31;58740;50.672;18.690;2024-02-23T06:49:07;7.91;85.87
71082;SHT31;58740;50.672;18.690;2024-02-23T06:51:41;7.92;85.81
71082;SHT31;58740;50.672;18.690;2024-02-23T06:54:14;7.92;85.74
71082;SHT31;58740;50.672;18.690;2024-02-23T06:56:47;7.93;85.81
71082;SHT31;58740;50.672;18.690;2024-02-23T06:59:20;7.94;85.89
71082;SHT31;58740;50.672;18.690;2024-02-23T07:01:54;7.93;85.86
71082;SHT31;58740;50.672;18.690;2024-02-23T07:04:28;7.94;85.83
71082;SHT31;58740;50.672;18.690;2024-02-23T07:07:03;7.95;86.02
71082;SHT31;58740;50.672;18.690;2024-02-23T07:09:37;7.94;86.02
71082;SHT31;58740;50.672;18.690;2024-02-23T07:12:10;7.93;86.14
71082;SHT31;58740;50.672;18.690;2024-02-23T07:14:44;7.94;86.12
71082;SHT31;58740;50.672;18.690;2024-02-23T07:17:18;7.94;86.10
71082;SHT31;58740;50.672;18.690;2024-02-23T07:19:51;7.95;86.07
71082;SHT31;58740;50.672;18.690;2024-02-23T07:22:32;7.95;86.14
71082;SHT31;58740;50.672;18.690;2024-02-23T07:25:06;7.95;86.21
71082;SHT31;58740;50.672;18.690;2024-02-23T07:27:40;7.95;86.19
71082;SHT31;58740;50.672;18.690;2024-02-23T07:30:14;7.95;86.11
71082;SHT31;58740;50.672;18.690;2024-02-23T07:32:48;7.96;86.15
71082;SHT31;58740;50.672;18.690;2024-02-23T07:35:22;7.97;86.25
71082;SHT31;58740;50.672;18.690;2024-02-23T07:37:56;7.96;86.25
71082;SHT31;58740;50.672;18.690;2024-02-23T07:40:29;7.97;86.30
71082;SHT31;58740;50.672;18.690;2024-02-23T07:43:03;7.97;86.28
71082;SHT31;58740;50.672;18.690;2024-02-23T07:45:36;7.97;86.22
71082;SHT31;58740;50.672;18.690;2024-02-23T07:48:11;7.98;86.19
71082;SHT31;58740;50.672;18.690;2024-02-23T07:50:44;7.99;86.11
71082;SHT31;58740;50.672;18.690;2024-02-23T07:53:18;8.00;86.09
71082;SHT31;58740;50.672;18.690;2024-02-23T07:55:51;8.02;86.05
71082;SHT31;58740;50.672;18.690;2024-02-23T07:58:28;8.04;86.06
71082;SHT31;58740;50.672;18.690;2024-02-23T08:01:01;8.04;86.17
71082;SHT31;58740;50.672;18.690;2024-02-23T08:03:35;8.06;86.19
71082;SHT31;58740;50.672;18.690;2024-02-23T08:06:11;8.06;86.20
71082;SHT31;58740;50.672;18.690;2024-02-23T08:08:45;8.08;86.19
71082;SHT31;58740;50.672;18.690;2024-02-23T08:11:18;8.10;86.17
71082;SHT31;58740;50.672;18.690;2024-02-23T08:13:52;8.12;86.11
71082;SHT31;58740;50.672;18.690;2024-02-23T08:16:25;8.14;86.15
71082;SHT31;58740;50.672;18.690;2024-02-23T08:18:59;8.15;86.05
71082;SHT31;58740;50.672;18.690;2024-02-23T08:21:32;8.17;86.13
71082;SHT31;58740;50.672;18.690;2024-02-23T08:24:06;8.18;86.07
71082;SHT31;58740;50.672;18.690;2024-02-23T08:26:39;8.19;86.04
71082;SHT31;58740;50.672;18.690;2024-02-23T08:29:13;8.20;86.01
71082;SHT31;58740;50.672;18.690;2024-02-23T08:31:46;8.21;86.02
71082;SHT31;58740;50.672;18.690;2024-02-23T08:34:19;8.22;86.07
71082;SHT31;58740;50.672;18.690;2024-02-23T08:36:53;8.22;86.10
71082;SHT31;58740;50.672;18.690;2024-02-23T08:39:26;8.22;86.16
71082;SHT31;58740;50.672;18.690;2024-02-23T08:42:00;8.22;86.20
71082;SHT31;58740;50.672;18.690;2024-02-23T08:44:33;8.22;86.18
71082;SHT31;58740;50.672;18.690;2024-02-23T08:47:08;8.22;86.20
71082;SHT31;58740;50.672;18.690;2024-02-23T08:49:41;8.24;86.17
71082;SHT31;58740;50.672;18.690;2024-02-23T08:52:15;8.25;86.15
71082;SHT31;58740;50.672;18.690;2024-02-23T08:54:49;8.27;86.12
71082;SHT31;58740;50.672;18.690;2024-02-23T08:57:22;8.28;86.10
71082;SHT31;58740;50.672;18.690;2024-02-23T08:59:56;8.29;86.10
71082;SHT31;58740;50.672;18.690;2024-02-23T09:02:30;8.31;86.10
71082;SHT31;58740;50.672;18.690;2024-02-23T09:05:05;8.33;86.03
71082;SHT31;58740;50.672;18.690;2024-02-23T09:07:39;8.34;86.08
71082;SHT31;58740;50.672;18.690;2024-02-23T09:10:14;8.37;86.11
71082;SHT31;58740;50.672;18.690;2024-02-23T09:12:47;8.38;86.05
71082;SHT31;58740;50.672;18.690;2024-02-23T09:15:22;8.40;86.04
71082;SHT31;58740;50.672;18.690;2024-02-23T09:17:56;8.41;86.08
71082;SHT31;58740;50.672;18.690;2024-02-23T09:20:29;8.43;86.11
71082;SHT31;58740;50.672;18.690;2024-02-23T09:23:02;8.46;86.10
71082;SHT31;58740;50.672;18.690;2024-02-23T09:25:35;8.47;86.13
71082;SHT31;58740;50.672;18.690;2024-02-23T09:28:12;8.49;86.20
71082;SHT31;58740;50.672;18.690;2024-02-23T09:30:45;8.51;86.19
71082;SHT31;58740;50.672;18.690;2024-02-23T09:33:18;8.54;86.10
71082;SHT31;58740;50.672;18.690;2024-02-23T09:35:51;8.57;86.10
71082;SHT31;58740;50.672;18.690;2024-02-23T09:38:25;8.62;86.11
71082;SHT31;58740;50.672;18.690;2024-02-23T09:41:01;8.65;86.12
71082;SHT31;58740;50.672;18.690;2024-02-23T09:43:35;8.69;86.09
71082;SHT31;58740;50.672;18.690;2024-02-23T09:46:08;8.73;86.00
71082;SHT31;58740;50.672;18.690;2024-02-23T09:48:43;8.78;86.03
71082;SHT31;58740;50.672;18.690;2024-02-23T09:51:19;8.82;85.98
71082;SHT31;58740;50.672;18.690;2024-02-23T09:53:55;8.84;85.93
71082;SHT31;58740;50.672;18.690;2024-02-23T09:56:28;8.88;86.00
71082;SHT31;58740;50.672;18.690;2024-02-23T09:59:03;8.92;85.92
71082;SHT31;58740;50.672;18.690;2024-02-23T10:01:36;8.95;85.91
71082;SHT31;58740;50.672;18.690;2024-02-23T10:04:10;8.99;85.77
71082;SHT31;58740;50.672;18.690;2024-02-23T10:06:44;8.99;85.70
71082;SHT31;58740;50.672;18.690;2024-02-23T10:09:17;9.02;85.70
71082;SHT31;58740;50.672;18.690;2024-02-23T10:11:53;9.05;85.77
71082;SHT31;58740;50.672;18.690;2024-02-23T10:14:26;9.09;85.79
71082;SHT31;58740;50.672;18.690;2024-02-23T10:16:59;9.14;85.74
71082;SHT31;58740;50.672;18.690;2024-02-23T10:19:33;9.16;85.56
71082;SHT31;58740;50.672;18.690;2024-02-23T10:22:07;9.18;85.58
71082;SHT31;58740;50.672;18.690;2024-02-23T10:24:43;9.20;85.55
71082;SHT31;58740;50.672;18.690;2024-02-23T10:27:16;9.20;85.41
71082;SHT31;58740;50.672;18.690;2024-02-23T10:29:51;9.21;85.39
71082;SHT31;58740;50.672;18.690;2024-02-23T10:32:25;9.19;85.33
71082;SHT31;58740;50.672;18.690;2024-02-23T10:35:01;9.21;85.38
71082;SHT31;58740;50.672;18.690;2024-02-23T10:37:40;9.21;85.45
71082;SHT31;58740;50.672;18.690;2024-02-23T10:40:19;9.22;85.40
71082;SHT31;58740;50.672;18.690;2024-02-23T10:42:56;9.23;85.39
71082;SHT31;58740;50.672;18.690;2024-02-23T10:45:32;9.23;85.37
71082;SHT31;58740;50.672;18.690;2024-02-23T10:48:07;9.23;85.40
71082;SHT31;58740;50.672;18.690;2024-02-23T10:50:43;9.23;85.34
71082;SHT31;58740;50.672;18.690;2024-02-23T10:53:18;9.24;85.40
71082;SHT31;58740;50.672;18.690;2024-02-23T10:55:53;9.26;85.32
71082;SHT31;58740;50.672;18.690;2024-02-23T10:58:29;9.28;85.26
71082;SHT31;58740;50.672;18.690;2024-02-23T11:01:03;9.30;85.19
71082;SHT31;58740;50.672;18.690;2024-02-23T11:03:41;9.31;85.10
71082;SHT31;58740;50.672;18.690;2024-02-23T11:06:19;9.33;85.13
71082;SHT31;58740;50.672;18.690;2024-02-23T11:09:06;9.32;85.00
71082;SHT31;58740;50.672;18.690;2024-02-23T11:11:51;9.34;84.97
71082;SHT31;58740;50.672;18.690;2024-02-23T11:14:31;9.33;84.94
71082;SHT31;58740;50.672;18.690;2024-02-23T11:17:07;9.32;84.91
71082;SHT31;58740;50.672;18.690;2024-02-23T11:19:53;9.31;84.88
71082;SHT31;58740;50.672;18.690;2024-02-23T11:22:30;9.30;84.86
71082;SHT31;58740;50.672;18.690;2024-02-23T11:25:07;9.31;84.93
71082;SHT31;58740;50.672;18.690;2024-02-23T11:27:41;9.31;84.91
71082;SHT31;58740;50.672;18.690;2024-02-23T11:30:18;9.32;84.89
71082;SHT31;58740;50.672;18.690;2024-02-23T11:32:52;9.31;84.88
71082;SHT31;58740;50.672;18.690;2024-02-23T11:35:31;9.34;84.89
71082;SHT31;58740;50.672;18.690;2024-02-23T11:38:05;9.34;84.90
71082;SHT31;58740;50.672;18.690;2024-02-23T11:40:40;9.35;84.86
71082;SHT31;58740;50.672;18.690;2024-02-23T11:43:14;9.37;84.83
71082;SHT31;58740;50.672;18.690;2024-02-23T11:45:50;9.37;84.80
71082;SHT31;58740;50.672;18.690;2024-02-23T11:48:24;9.39;84.79
71082;SHT31;58740;50.672;18.690;2024-02-23T11:50:58;9.40;84.69
71082;SHT31;58740;50.672;18.690;2024-02-23T11:53:31;9.42;84.77
71082;SHT31;58740;50.672;18.690;2024-02-23T11:56:06;9.45;84.75
71082;SHT31;58740;50.672;18.690;2024-02-23T11:58:40;9.47;84.70
71082;SHT31;58740;50.672;18.690;2024-02-23T12:01:14;9.50;84.67
71082;SHT31;58740;50.672;18.690;2024-02-23T12:03:48;9.52;84.67
71082;SHT31;58740;50.672;18.690;2024-02-23T12:06:21;9.53;84.58
71082;SHT31;58740;50.672;18.690;2024-02-23T12:08:58;9.55;84.43
71082;SHT31;58740;50.672;18.690;2024-02-23T12:11:31;9.55;84.42
71082;SHT31;58740;50.672;18.690;2024-02-23T12:14:05;9.55;84.35
71082;SHT31;58740;50.672;18.690;2024-02-23T12:16:40;9.55;84.28
71082;SHT31;58740;50.672;18.690;2024-02-23T12:19:14;9.55;84.38
71082;SHT31;58740;50.672;18.690;2024-02-23T12:21:48;9.56;84.35
71082;SHT31;58740;50.672;18.690;2024-02-23T12:24:22;9.56;84.26
71082;SHT31;58740;50.672;18.690;2024-02-23T12:26:57;9.57;84.19
71082;SHT31;58740;50.672;18.690;2024-02-23T12:29:30;9.58;84.26
71082;SHT31;58740;50.672;18.690;2024-02-23T12:32:04;9.59;84.13
71082;SHT31;58740;50.672;18.690;2024-02-23T12:34:38;9.60;84.06
71082;SHT31;58740;50.672;18.690;2024-02-23T12:37:15;9.61;84.07
71082;SHT31;58740;50.672;18.690;2024-02-23T12:39:51;9.62;84.01
71082;SHT31;58740;50.672;18.690;2024-02-23T12:42:24;9.64;84.06
71082;SHT31;58740;50.672;18.690;2024-02-23T12:44:57;9.67;83.92
71082;SHT31;58740;50.672;18.690;2024-02-23T12:47:31;9.68;83.80
71082;SHT31;58740;50.672;18.690;2024-02-23T12:50:05;9.69;83.82
71082;SHT31;58740;50.672;18.690;2024-02-23T12:52:40;9.69;83.89
71082;SHT31;58740;50.672;18.690;2024-02-23T12:55:15;9.71;83.80
71082;SHT31;58740;50.672;18.690;2024-02-23T12:57:48;9.70;83.69
71082;SHT31;58740;50.672;18.690;2024-02-23T13:00:21;9.71;83.66
71082;SHT31;58740;50.672;18.690;2024-02-23T13:02:54;9.70;83.50
71082;SHT31;58740;50.672;18.690;2024-02-23T13:05:29;9.68;83.55
71082;SHT31;58740;50.672;18.690;2024-02-23T13:08:02;9.68;83.47
71082;SHT31;58740;50.672;18.690;2024-02-23T13:10:37;9.66;83.46
71082;SHT31;58740;50.672;18.690;2024-02-23T13:13:10;9.66;83.50
71082;SHT31;58740;50.672;18.690;2024-02-23T13:15:46;9.64;83.54
71082;SHT31;58740;50.672;18.690;2024-02-23T13:18:20;9.65;83.50
71082;SHT31;58740;50.672;18.690;2024-02-23T13:20:54;9.65;83.39
71082;SHT31;58740;50.672;18.690;2024-02-23T13:23:28;9.64;83.30
71082;SHT31;58740;50.672;18.690;2024-02-23T13:26:01;9.63;83.20
71082;SHT31;58740;50.672;18.690;2024-02-23T13:28:35;9.62;83.23
71082;SHT31;58740;50.672;18.690;2024-02-23T13:31:08;9.62;83.30
71082;SHT31;58740;50.672;18.690;2024-02-23T13:33:42;9.61;83.19
71082;SHT31;58740;50.672;18.690;2024-02-23T13:36:16;9.61;83.08
71082;SHT31;58740;50.672;18.690;2024-02-23T13:38:49;9.60;83.04
71082;SHT31;58740;50.672;18.690;2024-02-23T13:41:25;9.61;83.04
71082;SHT31;58740;50.672;18.690;2024-02-23T13:43:58;9.61;83.10
71082;SHT31;58740;50.672;18.690;2024-02-23T13:46:34;9.61;83.07
71082;SHT31;58740;50.672;18.690;2024-02-23T13:49:09;9.61;83.00
71082;SHT31;58740;50.672;18.690;2024-02-23T13:51:43;9.63;83.02
71082;SHT31;58740;50.672;18.690;2024-02-23T13:54:17;9.63;82.92
71082;SHT31;58740;50.672;18.690;2024-02-23T13:56:52;9.64;82.90
71082;SHT31;58740;50.672;18.690;2024-02-23T13:59:26;9.63;82.96
71082;SHT31;58740;50.672;18.690;2024-02-23T14:02:01;9.63;82.93
71082;SHT31;58740;50.672;18.690;2024-02-23T14:04:36;9.63;82.76
71082;SHT31;58740;50.672;18.690;2024-02-23T14:07:10;9.60;82.80
71082;SHT31;58740;50.672;18.690;2024-02-23T14:09:43;9.58;82.84
71082;SHT31;58740;50.672;18.690;2024-02-23T14:12:21;9.57;82.89
71082;SHT31;58740;50.672;18.690;2024-02-23T14:14:55;9.57;82.92
71082;SHT31;58740;50.672;18.690;2024-02-23T14:17:30;9.56;83.00
71082;SHT31;58740;50.672;18.690;2024-02-23T14:20:06;9.56;83.00
71082;SHT31;58740;50.672;18.690;2024-02-23T14:22:42;9.55;83.03
71082;SHT31;58740;50.672;18.690;2024-02-23T14:25:16;9.55;83.02
71082;SHT31;58740;50.672;18.690;2024-02-23T14:27:51;9.56;83.02
71082;SHT31;58740;50.672;18.690;2024-02-23T14:30:25;9.55;82.98
71082;SHT31;58740;50.672;18.690;2024-02-23T14:32:59;9.54;82.99
71082;SHT31;58740;50.672;18.690;2024-02-23T14:35:37;9.54;82.96
71082;SHT31;58740;50.672;18.690;2024-02-23T14:38:11;9.54;82.91
71082;SHT31;58740;50.672;18.690;2024-02-23T14:40:45;9.52;82.89
71082;SHT31;58740;50.672;18.690;2024-02-23T14:43:21;9.51;82.90
71082;SHT31;58740;50.672;18.690;2024-02-23T14:45:58;9.50;82.83
71082;SHT31;58740;50.672;18.690;2024-02-23T14:48:34;9.48;82.90
71082;SHT31;58740;50.672;18.690;2024-02-23T14:51:07;9.46;82.98
71082;SHT31;58740;50.672;18.690;2024-02-23T14:53:41;9.44;83.04
71082;SHT31;58740;50.672;18.690;2024-02-23T14:56:14;9.42;83.12
71082;SHT31;58740;50.672;18.690;2024-02-23T14:58:48;9.39;83.13
71082;SHT31;58740;50.672;18.690;2024-02-23T15:01:21;9.38;83.24
71082;SHT31;58740;50.672;18.690;2024-02-23T15:03:54;9.36;83.30
71082;SHT31;58740;50.672;18.690;2024-02-23T15:06:28;9.35;83.30
71082;SHT31;58740;50.672;18.690;2024-02-23T15:09:01;9.34;83.35
71082;SHT31;58740;50.672;18.690;2024-02-23T15:11:35;9.32;83.42
71082;SHT31;58740;50.672;18.690;2024-02-23T15:14:09;9.31;83.50
71082;SHT31;58740;50.672;18.690;2024-02-23T15:16:44;9.30;83.60
71082;SHT31;58740;50.672;18.690;2024-02-23T15:19:18;9.30;83.72
71082;SHT31;58740;50.672;18.690;2024-02-23T15:21:52;9.30;83.80
71082;SHT31;58740;50.672;18.690;2024-02-23T15:24:25;9.30;83.92
71082;SHT31;58740;50.672;18.690;2024-02-23T15:26:59;9.28;83.93
71082;SHT31;58740;50.672;18.690;2024-02-23T15:29:32;9.26;83.98
71082;SHT31;58740;50.672;18.690;2024-02-23T15:32:06;9.25;84.09
71082;SHT31;58740;50.672;18.690;2024-02-23T15:34:41;9.24;84.16
71082;SHT31;58740;50.672;18.690;2024-02-23T15:37:14;9.22;84.27
71082;SHT31;58740;50.672;18.690;2024-02-23T15:39:48;9.21;84.33
71082;SHT31;58740;50.672;18.690;2024-02-23T15:42:21;9.19;84.38
71082;SHT31;58740;50.672;18.690;2024-02-23T15:44:55;9.18;84.42
71082;SHT31;58740;50.672;18.690;2024-02-23T15:47:28;9.16;84.49
71082;SHT31;58740;50.672;18.690;2024-02-23T15:50:01;9.14;84.53
71082;SHT31;58740;50.672;18.690;2024-02-23T15:52:56;9.13;84.64
71082;SHT31;58740;50.672;18.690;2024-02-23T15:55:33;9.10;84.70
71082;SHT31;58740;50.672;18.690;2024-02-23T15:58:07;9.08;84.73
71082;SHT31;58740;50.672;18.690;2024-02-23T16:00:40;9.06;84.75
71082;SHT31;58740;50.672;18.690;2024-02-23T16:03:13;9.05;84.77
71082;SHT31;58740;50.672;18.690;2024-02-23T16:05:48;9.05;84.74
71082;SHT31;58740;50.672;18.690;2024-02-23T16:08:37;9.03;84.82
71082;SHT31;58740;50.672;18.690;2024-02-23T16:11:13;9.02;84.96
71082;SHT31;58740;50.672;18.690;2024-02-23T16:13:46;9.00;85.04